sensor_id;sensor_type;location;lat;lon;timestamp;temperature;humidity
11126;DHT22;5617;54.046;10.676;2022-10-31T00:01:12;11.00;99.90
11126;DHT22;5617;54.046;10.676;2022-10-31T00:03:24;11.00;99.90
11126;DHT22;5617;54.046;10.676;2022-10-31T00:05:51;11.00;99.90
11126;DHT22;5617;54.046;10.676;2022-10-31T00:08:01;10.90;99.90
11126;DHT22;5617;54.046;10.676;2022-10-31T00:10:10;10.90;99.90
11126;DHT22;5617;54.046;10.676;2022-10-31T00:12:19;10.80;99.90
11126;DHT22;5617;54.046;10.676;2022-10-31T00:14:30;10.80;99.90
11126;DHT22;5617;54.046;10.676;2022-10-31T00:16:39;10.80;99.90
11126;DHT22;5617;54.046;10.676;2022-10-31T00:18:49;10.80;99.90
11126;DHT22;5617;54.046;10.676;2022-10-31T00:20:59;10.80;99.90
11126;DHT22;5617;54.046;10.676;2022-10-31T00:23:09;10.80;99.90
11126;DHT22;5617;54.046;10.676;2022-10-31T00:25:18;10.80;99.90
11126;DHT22;5617;54.046;10.676;2022-10-31T00:27:26;10.70;99.90
11126;DHT22;5617;54.046;10.676;2022-10-31T00:29:36;10.70;99.90
11126;DHT22;5617;54.046;10.676;2022-10-31T00:31:43;10.70;99.90
11126;DHT22;5617;54.046;10.676;2022-10-31T00:33:51;10.70;99.90
11126;DHT22;5617;54.046;10.676;2022-10-31T00:35:59;10.70;99.90
11126;DHT22;5617;54.046;10.676;2022-10-31T00:38:07;10.70;99.90
11126;DHT22;5617;54.046;10.676;2022-10-31T00:40:14;10.70;99.90
11126;DHT22;5617;54.046;10.676;2022-10-31T00:42:22;10.70;99.90
11126;DHT22;5617;54.046;10.676;2022-10-31T00:44:30;10.70;99.90
11126;DHT22;5617;54.046;10.676;2022-10-31T00:46:39;10.70;99.90
11126;DHT22;5617;54.046;10.676;2022-10-31T00:48:47;10.70;99.90
11126;DHT22;5617;54.046;10.676;2022-10-31T00:50:55;10.90;99.90
11126;DHT22;5617;54.046;10.676;2022-10-31T00:53:03;10.70;99.90
11126;DHT22;5617;54.046;10.676;2022-10-31T00:55:11;10.70;99.90
11126;DHT22;5617;54.046;10.676;2022-10-31T00:57:19;10.70;99.90
11126;DHT22;5617;54.046;10.676;2022-10-31T00:59:27;10.70;99.90
11126;DHT22;5617;54.046;10.676;2022-10-31T01:01:34;10.70;99.90
11126;DHT22;5617;54.046;10.676;2022-10-31T01:03:44;10.70;99.90
11126;DHT22;5617;54.046;10.676;2022-10-31T01:05:56;10.70;99.90
11126;DHT22;5617;54.046;10.676;2022-10-31T01:08:04;10.70;99.90
11126;DHT22;5617;54.046;10.676;2022-10-31T01:10:12;10.70;99.90
11126;DHT22;5617;54.046;10.676;2022-10-31T01:12:20;10.70;99.90
11126;DHT22;5617;54.046;10.676;2022-10-31T01:14:27;10.70;99.90
11126;DHT22;5617;54.046;10.676;2022-10-31T01:16:35;10.70;99.90
11126;DHT22;5617;54.046;10.676;2022-10-31T01:18:45;10.70;99.90
11126;DHT22;5617;54.046;10.676;2022-10-31T01:21:04;10.70;99.90
11126;DHT22;5617;54.046;10.676;2022-10-31T01:23:12;10.70;99.90
11126;DHT22;5617;54.046;10.676;2022-10-31T01:25:20;10.70;99.90
11126;DHT22;5617;54.046;10.676;2022-10-31T01:27:27;10.80;99.90
11126;DHT22;5617;54.046;10.676;2022-10-31T01:29:36;10.80;99.90
11126;DHT22;5617;54.046;10.676;2022-10-31T01:31:43;10.90;99.90
11126;DHT22;5617;54.046;10.676;2022-10-31T01:33:53;10.80;99.90
11126;DHT22;5617;54.046;10.676;2022-10-31T01:36:10;10.90;99.90
11126;DHT22;5617;54.046;10.676;2022-10-31T01:38:18;10.90;99.90
11126;DHT22;5617;54.046;10.676;2022-10-31T01:40:29;10.90;99.90
11126;DHT22;5617;54.046;10.676;2022-10-31T01:42:37;10.90;99.90
11126;DHT22;5617;54.046;10.676;2022-10-31T01:44:51;10.90;99.90
11126;DHT22;5617;54.046;10.676;2022-10-31T01:47:03;10.90;99.90
11126;DHT22;5617;54.046;10.676;2022-10-31T01:49:18;10.90;99.90
11126;DHT22;5617;54.046;10.676;2022-10-31T01:51:30;10.80;99.90
11126;DHT22;5617;54.046;10.676;2022-10-31T01:53:40;10.80;99.90
11126;DHT22;5617;54.046;10.676;2022-10-31T01:55:49;10.80;99.90
11126;DHT22;5617;54.046;10.676;2022-10-31T01:57:59;10.80;99.90
11126;DHT22;5617;54.046;10.676;2022-10-31T02:00:10;10.80;99.90
11126;DHT22;5617;54.046;10.676;2022-10-31T02:02:19;10.80;99.90
11126;DHT22;5617;54.046;10.676;2022-10-31T02:04:29;10.70;99.90
11126;DHT22;5617;54.046;10.676;2022-10-31T02:06:41;10.70;99.90
11126;DHT22;5617;54.046;10.676;2022-10-31T02:08:50;10.70;99.90
11126;DHT22;5617;54.046;10.676;2022-10-31T02:11:00;10.80;99.90
11126;DHT22;5617;54.046;10.676;2022-10-31T02:13:08;10.80;99.90
11126;DHT22;5617;54.046;10.676;2022-10-31T02:15:17;10.80;99.90
11126;DHT22;5617;54.046;10.676;2022-10-31T02:17:25;10.90;99.90
11126;DHT22;5617;54.046;10.676;2022-10-31T02:19:40;10.90;99.90
11126;DHT22;5617;54.046;10.676;2022-10-31T02:22:00;10.90;99.90
11126;DHT22;5617;54.046;10.676;2022-10-31T02:24:24;10.90;99.90
11126;DHT22;5617;54.046;10.676;2022-10-31T02:27:01;10.90;99.90
11126;DHT22;5617;54.046;10.676;2022-10-31T02:31:54;11.00;99.90
11126;DHT22;5617;54.046;10.676;2022-10-31T02:34:11;11.10;99.90
11126;DHT22;5617;54.046;10.676;2022-10-31T02:36:26;11.10;99.90
11126;DHT22;5617;54.046;10.676;2022-10-31T02:38:45;11.10;99.90
11126;DHT22;5617;54.046;10.676;2022-10-31T02:41:01;11.10;99.90
11126;DHT22;5617;54.046;10.676;2022-10-31T02:43:12;11.20;99.90
11126;DHT22;5617;54.046;10.676;2022-10-31T02:45:28;11.20;99.90
11126;DHT22;5617;54.046;10.676;2022-10-31T02:47:39;11.30;99.90
11126;DHT22;5617;54.046;10.676;2022-10-31T02:49:52;11.40;99.90
11126;DHT22;5617;54.046;10.676;2022-10-31T02:52:01;11.40;99.90
11126;DHT22;5617;54.046;10.676;2022-10-31T02:54:18;11.50;99.90
11126;DHT22;5617;54.046;10.676;2022-10-31T02:56:26;11.50;99.90
11126;DHT22;5617;54.046;10.676;2022-10-31T02:58:36;11.60;99.90
11126;DHT22;5617;54.046;10.676;2022-10-31T03:00:51;11.70;99.90
11126;DHT22;5617;54.046;10.676;2022-10-31T03:03:12;11.70;99.90
11126;DHT22;5617;54.046;10.676;2022-10-31T03:05:41;11.80;99.90
11126;DHT22;5617;54.046;10.676;2022-10-31T03:07:58;12.00;99.90
11126;DHT22;5617;54.046;10.676;2022-10-31T03:10:13;12.00;99.90
11126;DHT22;5617;54.046;10.676;2022-10-31T03:12:26;12.10;99.90
11126;DHT22;5617;54.046;10.676;2022-10-31T03:14:40;12.20;99.90
11126;DHT22;5617;54.046;10.676;2022-10-31T03:16:50;12.30;99.90
11126;DHT22;5617;54.046;10.676;2022-10-31T03:19:03;12.40;99.90
11126;DHT22;5617;54.046;10.676;2022-10-31T03:21:14;12.50;99.90
11126;DHT22;5617;54.046;10.676;2022-10-31T03:23:25;12.60;99.90
11126;DHT22;5617;54.046;10.676;2022-10-31T03:25:35;12.60;99.90
11126;DHT22;5617;54.046;10.676;2022-10-31T03:27:44;12.70;99.90
11126;DHT22;5617;54.046;10.676;2022-10-31T03:29:55;12.70;99.90
11126;DHT22;5617;54.046;10.676;2022-10-31T03:32:07;12.80;99.90
11126;DHT22;5617;54.046;10.676;2022-10-31T03:34:19;12.80;99.90
11126;DHT22;5617;54.046;10.676;2022-10-31T03:36:28;12.80;99.90
11126;DHT22;5617;54.046;10.676;2022-10-31T03:38:39;12.90;99.90
11126;DHT22;5617;54.046;10.676;2022-10-31T03:40:48;12.90;99.90
11126;DHT22;5617;54.046;10.676;2022-10-31T03:43:00;13.00;99.90
11126;DHT22;5617;54.046;10.676;2022-10-31T03:45:12;13.10;99.90
11126;DHT22;5617;54.046;10.676;2022-10-31T03:47:21;13.10;99.90
11126;DHT22;5617;54.046;10.676;2022-10-31T03:49:31;13.10;99.90
11126;DHT22;5617;54.046;10.676;2022-10-31T03:51:43;13.10;99.90
11126;DHT22;5617;54.046;10.676;2022-10-31T03:53:55;13.20;99.90
11126;DHT22;5617;54.046;10.676;2022-10-31T03:56:09;13.30;99.90
11126;DHT22;5617;54.046;10.676;2022-10-31T03:58:21;13.30;99.90
11126;DHT22;5617;54.046;10.676;2022-10-31T04:00:33;13.40;99.90
11126;DHT22;5617;54.046;10.676;2022-10-31T04:02:48;13.40;99.90
11126;DHT22;5617;54.046;10.676;2022-10-31T04:05:00;13.40;99.90
11126;DHT22;5617;54.046;10.676;2022-10-31T04:07:11;13.50;99.90
11126;DHT22;5617;54.046;10.676;2022-10-31T04:09:22;13.50;99.90
11126;DHT22;5617;54.046;10.676;2022-10-31T04:11:35;13.60;99.90
11126;DHT22;5617;54.046;10.676;2022-10-31T04:13:48;13.60;99.90
11126;DHT22;5617;54.046;10.676;2022-10-31T04:16:15;13.60;99.90
11126;DHT22;5617;54.046;10.676;2022-10-31T04:18:25;13.60;99.90
11126;DHT22;5617;54.046;10.676;2022-10-31T04:20:48;13.60;99.90
11126;DHT22;5617;54.046;10.676;2022-10-31T04:23:19;13.60;99.90
11126;DHT22;5617;54.046;10.676;2022-10-31T04:25:28;13.70;99.90
11126;DHT22;5617;54.046;10.676;2022-10-31T04:27:37;13.70;99.90
11126;DHT22;5617;54.046;10.676;2022-10-31T04:29:46;13.70;99.90
11126;DHT22;5617;54.046;10.676;2022-10-31T04:31:55;13.70;99.90
11126;DHT22;5617;54.046;10.676;2022-10-31T04:34:15;13.70;99.90
11126;DHT22;5617;54.046;10.676;2022-10-31T04:36:26;13.70;99.90
11126;DHT22;5617;54.046;10.676;2022-10-31T04:38:34;13.70;99.90
11126;DHT22;5617;54.046;10.676;2022-10-31T04:40:44;13.70;99.90
11126;DHT22;5617;54.046;10.676;2022-10-31T04:42:53;13.70;99.90
11126;DHT22;5617;54.046;10.676;2022-10-31T04:45:07;13.70;99.90
11126;DHT22;5617;54.046;10.676;2022-10-31T04:47:15;13.70;99.90
11126;DHT22;5617;54.046;10.676;2022-10-31T04:49:24;13.70;99.90
11126;DHT22;5617;54.046;10.676;2022-10-31T04:51:33;13.60;99.90
11126;DHT22;5617;54.046;10.676;2022-10-31T04:53:42;13.60;99.90
11126;DHT22;5617;54.046;10.676;2022-10-31T04:55:50;13.60;99.90
11126;DHT22;5617;54.046;10.676;2022-10-31T04:57:58;13.70;99.90
11126;DHT22;5617;54.046;10.676;2022-10-31T05:00:08;13.70;99.90
11126;DHT22;5617;54.046;10.676;2022-10-31T05:02:16;13.70;99.90
11126;DHT22;5617;54.046;10.676;2022-10-31T05:04:24;13.70;99.90
11126;DHT22;5617;54.046;10.676;2022-10-31T05:06:33;13.70;99.90
11126;DHT22;5617;54.046;10.676;2022-10-31T05:08:41;13.80;99.90
11126;DHT22;5617;54.046;10.676;2022-10-31T05:10:49;13.80;99.90
11126;DHT22;5617;54.046;10.676;2022-10-31T05:12:58;13.80;99.90
11126;DHT22;5617;54.046;10.676;2022-10-31T05:15:07;13.80;99.90
11126;DHT22;5617;54.046;10.676;2022-10-31T05:17:14;13.90;99.90
11126;DHT22;5617;54.046;10.676;2022-10-31T05:19:22;13.90;99.90
11126;DHT22;5617;54.046;10.676;2022-10-31T05:21:30;13.90;99.90
11126;DHT22;5617;54.046;10.676;2022-10-31T05:23:39;13.90;99.90
11126;DHT22;5617;54.046;10.676;2022-10-31T05:25:46;14.00;99.90
11126;DHT22;5617;54.046;10.676;2022-10-31T05:27:55;13.90;99.90
11126;DHT22;5617;54.046;10.676;2022-10-31T05:30:03;13.90;99.90
11126;DHT22;5617;54.046;10.676;2022-10-31T05:32:11;14.00;99.90
11126;DHT22;5617;54.046;10.676;2022-10-31T05:34:19;14.00;99.90
11126;DHT22;5617;54.046;10.676;2022-10-31T05:36:27;14.00;99.90
11126;DHT22;5617;54.046;10.676;2022-10-31T05:38:34;14.00;99.90
11126;DHT22;5617;54.046;10.676;2022-10-31T05:40:43;14.00;99.90
11126;DHT22;5617;54.046;10.676;2022-10-31T05:42:52;14.00;99.90
11126;DHT22;5617;54.046;10.676;2022-10-31T05:45:00;14.00;99.90
11126;DHT22;5617;54.046;10.676;2022-10-31T05:47:08;14.00;99.90
11126;DHT22;5617;54.046;10.676;2022-10-31T05:49:16;14.00;99.90
11126;DHT22;5617;54.046;10.676;2022-10-31T05:51:24;14.00;99.90
11126;DHT22;5617;54.046;10.676;2022-10-31T05:53:32;14.10;99.90
11126;DHT22;5617;54.046;10.676;2022-10-31T05:55:39;14.10;99.90
11126;DHT22;5617;54.046;10.676;2022-10-31T05:57:49;14.10;99.90
11126;DHT22;5617;54.046;10.676;2022-10-31T05:59:57;14.10;99.90
11126;DHT22;5617;54.046;10.676;2022-10-31T06:02:04;14.10;99.90
11126;DHT22;5617;54.046;10.676;2022-10-31T06:04:12;14.10;99.90
11126;DHT22;5617;54.046;10.676;2022-10-31T06:06:20;14.10;99.90
11126;DHT22;5617;54.046;10.676;2022-10-31T06:08:28;14.10;99.90
11126;DHT22;5617;54.046;10.676;2022-10-31T06:10:35;14.00;99.90
11126;DHT22;5617;54.046;10.676;2022-10-31T06:12:43;14.10;99.90
11126;DHT22;5617;54.046;10.676;2022-10-31T06:14:52;14.10;99.90
11126;DHT22;5617;54.046;10.676;2022-10-31T06:17:00;14.10;99.90
11126;DHT22;5617;54.046;10.676;2022-10-31T06:19:08;14.10;99.90
11126;DHT22;5617;54.046;10.676;2022-10-31T06:21:15;14.10;99.90
11126;DHT22;5617;54.046;10.676;2022-10-31T06:23:23;14.10;99.90
11126;DHT22;5617;54.046;10.676;2022-10-31T06:25:31;14.10;99.90
11126;DHT22;5617;54.046;10.676;2022-10-31T06:27:39;14.10;99.90
11126;DHT22;5617;54.046;10.676;2022-10-31T06:29:47;14.10;99.90
11126;DHT22;5617;54.046;10.676;2022-10-31T06:31:56;14.10;99.90
11126;DHT22;5617;54.046;10.676;2022-10-31T06:34:03;14.10;99.90
11126;DHT22;5617;54.046;10.676;2022-10-31T06:36:11;14.10;99.90
11126;DHT22;5617;54.046;10.676;2022-10-31T06:38:18;14.10;99.90
11126;DHT22;5617;54.046;10.676;2022-10-31T06:40:26;14.10;99.90
11126;DHT22;5617;54.046;10.676;2022-10-31T06:42:34;14.10;99.90
11126;DHT22;5617;54.046;10.676;2022-10-31T06:44:41;14.10;99.90
11126;DHT22;5617;54.046;10.676;2022-10-31T06:46:49;14.20;99.90
11126;DHT22;5617;54.046;10.676;2022-10-31T06:48:58;14.20;99.90
11126;DHT22;5617;54.046;10.676;2022-10-31T06:51:06;14.20;99.90
11126;DHT22;5617;54.046;10.676;2022-10-31T06:53:14;14.20;99.90
11126;DHT22;5617;54.046;10.676;2022-10-31T06:55:22;14.20;99.90
11126;DHT22;5617;54.046;10.676;2022-10-31T06:57:30;14.20;99.90
11126;DHT22;5617;54.046;10.676;2022-10-31T06:59:38;14.20;99.90
11126;DHT22;5617;54.046;10.676;2022-10-31T07:01:46;14.20;99.90
11126;DHT22;5617;54.046;10.676;2022-10-31T07:03:54;14.20;99.90
11126;DHT22;5617;54.046;10.676;2022-10-31T07:06:05;14.20;99.90
11126;DHT22;5617;54.046;10.676;2022-10-31T07:08:15;14.20;99.90
11126;DHT22;5617;54.046;10.676;2022-10-31T07:10:24;14.30;99.90
11126;DHT22;5617;54.046;10.676;2022-10-31T07:12:33;14.30;99.90
11126;DHT22;5617;54.046;10.676;2022-10-31T07:14:43;14.30;99.90
11126;DHT22;5617;54.046;10.676;2022-10-31T07:16:51;14.30;99.90
11126;DHT22;5617;54.046;10.676;2022-10-31T07:19:00;14.30;99.90
11126;DHT22;5617;54.046;10.676;2022-10-31T07:21:09;14.30;99.90
11126;DHT22;5617;54.046;10.676;2022-10-31T07:23:18;14.30;99.90
11126;DHT22;5617;54.046;10.676;2022-10-31T07:25:26;14.30;99.90
11126;DHT22;5617;54.046;10.676;2022-10-31T07:27:37;14.30;99.90
11126;DHT22;5617;54.046;10.676;2022-10-31T07:29:46;14.30;99.90
11126;DHT22;5617;54.046;10.676;2022-10-31T07:31:54;14.30;99.90
11126;DHT22;5617;54.046;10.676;2022-10-31T07:34:02;14.30;99.90
11126;DHT22;5617;54.046;10.676;2022-10-31T07:36:11;14.30;99.90
11126;DHT22;5617;54.046;10.676;2022-10-31T07:38:19;14.30;99.90
11126;DHT22;5617;54.046;10.676;2022-10-31T07:40:26;14.40;99.90
11126;DHT22;5617;54.046;10.676;2022-10-31T07:42:35;14.30;99.90
11126;DHT22;5617;54.046;10.676;2022-10-31T07:44:43;14.30;99.90
11126;DHT22;5617;54.046;10.676;2022-10-31T07:46:50;14.30;99.90
11126;DHT22;5617;54.046;10.676;2022-10-31T07:48:58;14.30;99.90
11126;DHT22;5617;54.046;10.676;2022-10-31T07:51:06;14.30;99.90
11126;DHT22;5617;54.046;10.676;2022-10-31T07:53:15;14.30;99.90
11126;DHT22;5617;54.046;10.676;2022-10-31T07:55:23;14.30;99.90
11126;DHT22;5617;54.046;10.676;2022-10-31T07:57:31;14.30;99.90
11126;DHT22;5617;54.046;10.676;2022-10-31T07:59:39;14.30;99.90
11126;DHT22;5617;54.046;10.676;2022-10-31T08:01:47;14.30;99.90
11126;DHT22;5617;54.046;10.676;2022-10-31T08:03:55;14.30;99.90
11126;DHT22;5617;54.046;10.676;2022-10-31T08:06:02;14.40;99.90
11126;DHT22;5617;54.046;10.676;2022-10-31T08:08:10;14.40;99.90
11126;DHT22;5617;54.046;10.676;2022-10-31T08:10:20;14.40;99.90
11126;DHT22;5617;54.046;10.676;2022-10-31T08:12:27;14.40;99.90
11126;DHT22;5617;54.046;10.676;2022-10-31T08:14:35;14.50;99.90
11126;DHT22;5617;54.046;10.676;2022-10-31T08:16:43;14.40;99.90
11126;DHT22;5617;54.046;10.676;2022-10-31T08:18:52;14.40;99.90
11126;DHT22;5617;54.046;10.676;2022-10-31T08:21:02;14.40;99.90
11126;DHT22;5617;54.046;10.676;2022-10-31T08:23:11;14.40;99.90
11126;DHT22;5617;54.046;10.676;2022-10-31T08:25:20;14.40;99.90
11126;DHT22;5617;54.046;10.676;2022-10-31T08:27:28;14.40;99.90
11126;DHT22;5617;54.046;10.676;2022-10-31T08:29:36;14.30;99.90
11126;DHT22;5617;54.046;10.676;2022-10-31T08:31:43;14.30;99.90
11126;DHT22;5617;54.046;10.676;2022-10-31T08:33:52;14.30;99.90
11126;DHT22;5617;54.046;10.676;2022-10-31T08:36:00;14.30;99.90
11126;DHT22;5617;54.046;10.676;2022-10-31T08:38:09;14.30;99.90
11126;DHT22;5617;54.046;10.676;2022-10-31T08:40:17;14.30;99.90
11126;DHT22;5617;54.046;10.676;2022-10-31T08:42:26;14.30;99.90
11126;DHT22;5617;54.046;10.676;2022-10-31T08:44:34;14.30;99.90
11126;DHT22;5617;54.046;10.676;2022-10-31T08:46:42;14.30;99.90
11126;DHT22;5617;54.046;10.676;2022-10-31T08:48:50;14.30;99.90
11126;DHT22;5617;54.046;10.676;2022-10-31T08:50:58;14.20;99.90
11126;DHT22;5617;54.046;10.676;2022-10-31T08:53:11;14.20;99.90
11126;DHT22;5617;54.046;10.676;2022-10-31T08:55:18;14.20;99.90
11126;DHT22;5617;54.046;10.676;2022-10-31T08:57:27;14.30;99.90
11126;DHT22;5617;54.046;10.676;2022-10-31T08:59:35;14.30;99.90
11126;DHT22;5617;54.046;10.676;2022-10-31T09:01:44;14.30;99.90
11126;DHT22;5617;54.046;10.676;2022-10-31T09:03:52;14.40;99.90
11126;DHT22;5617;54.046;10.676;2022-10-31T09:06:01;14.40;99.90
11126;DHT22;5617;54.046;10.676;2022-10-31T09:08:12;14.50;99.90
11126;DHT22;5617;54.046;10.676;2022-10-31T09:10:20;14.50;99.90
11126;DHT22;5617;54.046;10.676;2022-10-31T09:12:30;14.60;99.90
11126;DHT22;5617;54.046;10.676;2022-10-31T09:14:37;14.50;99.90
11126;DHT22;5617;54.046;10.676;2022-10-31T09:16:45;14.60;99.90
11126;DHT22;5617;54.046;10.676;2022-10-31T09:18:53;14.60;99.90
11126;DHT22;5617;54.046;10.676;2022-10-31T09:21:01;14.70;99.90
11126;DHT22;5617;54.046;10.676;2022-10-31T09:23:10;14.80;99.90
11126;DHT22;5617;54.046;10.676;2022-10-31T09:25:18;14.80;99.90
11126;DHT22;5617;54.046;10.676;2022-10-31T09:27:26;14.90;99.90
11126;DHT22;5617;54.046;10.676;2022-10-31T09:29:36;14.80;99.90
11126;DHT22;5617;54.046;10.676;2022-10-31T09:31:44;14.90;99.90
11126;DHT22;5617;54.046;10.676;2022-10-31T09:33:52;14.90;99.90
11126;DHT22;5617;54.046;10.676;2022-10-31T09:36:00;14.90;99.90
11126;DHT22;5617;54.046;10.676;2022-10-31T09:38:09;14.90;99.90
11126;DHT22;5617;54.046;10.676;2022-10-31T09:40:17;14.90;99.90
11126;DHT22;5617;54.046;10.676;2022-10-31T09:42:43;14.90;99.90
11126;DHT22;5617;54.046;10.676;2022-10-31T09:45:03;14.90;99.90
11126;DHT22;5617;54.046;10.676;2022-10-31T09:47:19;14.90;99.90
11126;DHT22;5617;54.046;10.676;2022-10-31T09:49:41;14.90;99.90
11126;DHT22;5617;54.046;10.676;2022-10-31T09:51:55;14.90;99.90
11126;DHT22;5617;54.046;10.676;2022-10-31T09:54:08;14.90;99.90
11126;DHT22;5617;54.046;10.676;2022-10-31T09:56:19;14.90;99.90
11126;DHT22;5617;54.046;10.676;2022-10-31T09:58:29;14.90;99.90
11126;DHT22;5617;54.046;10.676;2022-10-31T10:00:39;14.90;99.90
11126;DHT22;5617;54.046;10.676;2022-10-31T10:02:51;14.90;99.90
11126;DHT22;5617;54.046;10.676;2022-10-31T10:05:02;14.90;99.90
11126;DHT22;5617;54.046;10.676;2022-10-31T10:07:16;14.90;99.90
11126;DHT22;5617;54.046;10.676;2022-10-31T10:09:27;15.00;99.90
11126;DHT22;5617;54.046;10.676;2022-10-31T10:11:46;15.00;99.90
11126;DHT22;5617;54.046;10.676;2022-10-31T10:14:08;15.10;99.90
11126;DHT22;5617;54.046;10.676;2022-10-31T10:16:33;15.10;99.90
11126;DHT22;5617;54.046;10.676;2022-10-31T10:18:55;15.10;99.90
11126;DHT22;5617;54.046;10.676;2022-10-31T10:21:22;15.20;99.90
11126;DHT22;5617;54.046;10.676;2022-10-31T10:23:44;15.20;99.90
11126;DHT22;5617;54.046;10.676;2022-10-31T10:26:01;15.10;99.90
11126;DHT22;5617;54.046;10.676;2022-10-31T10:28:17;15.10;99.90
11126;DHT22;5617;54.046;10.676;2022-10-31T10:30:33;15.10;99.90
11126;DHT22;5617;54.046;10.676;2022-10-31T10:32:45;15.00;99.90
11126;DHT22;5617;54.046;10.676;2022-10-31T10:34:59;15.00;99.90
11126;DHT22;5617;54.046;10.676;2022-10-31T10:37:17;15.00;99.90
11126;DHT22;5617;54.046;10.676;2022-10-31T10:39:30;15.10;99.90
11126;DHT22;5617;54.046;10.676;2022-10-31T10:41:43;15.10;99.90
11126;DHT22;5617;54.046;10.676;2022-10-31T10:43:52;15.00;99.90
11126;DHT22;5617;54.046;10.676;2022-10-31T10:46:16;15.10;99.90
11126;DHT22;5617;54.046;10.676;2022-10-31T10:48:45;15.10;99.90
11126;DHT22;5617;54.046;10.676;2022-10-31T10:50:55;15.10;99.90
11126;DHT22;5617;54.046;10.676;2022-10-31T10:53:14;15.10;99.90
11126;DHT22;5617;54.046;10.676;2022-10-31T10:55:34;15.30;99.90
11126;DHT22;5617;54.046;10.676;2022-10-31T10:57:53;15.30;99.90
11126;DHT22;5617;54.046;10.676;2022-10-31T11:00:15;15.30;99.90
11126;DHT22;5617;54.046;10.676;2022-10-31T11:02:25;15.40;99.90
11126;DHT22;5617;54.046;10.676;2022-10-31T11:04:36;15.50;99.90
11126;DHT22;5617;54.046;10.676;2022-10-31T11:06:56;15.50;99.90
11126;DHT22;5617;54.046;10.676;2022-10-31T11:09:09;15.50;99.90
11126;DHT22;5617;54.046;10.676;2022-10-31T11:11:25;15.60;99.90
11126;DHT22;5617;54.046;10.676;2022-10-31T11:13:35;15.60;99.90
11126;DHT22;5617;54.046;10.676;2022-10-31T11:15:51;15.60;99.90
11126;DHT22;5617;54.046;10.676;2022-10-31T11:18:01;15.60;99.90
11126;DHT22;5617;54.046;10.676;2022-10-31T11:20:26;15.60;99.90
11126;DHT22;5617;54.046;10.676;2022-10-31T11:22:37;15.70;99.90
11126;DHT22;5617;54.046;10.676;2022-10-31T11:24:44;15.60;99.90
11126;DHT22;5617;54.046;10.676;2022-10-31T11:27:15;15.60;99.90
11126;DHT22;5617;54.046;10.676;2022-10-31T11:29:24;15.50;99.90
11126;DHT22;5617;54.046;10.676;2022-10-31T11:31:32;15.60;99.90
11126;DHT22;5617;54.046;10.676;2022-10-31T11:33:46;15.60;99.90
11126;DHT22;5617;54.046;10.676;2022-10-31T11:35:56;15.60;99.90
11126;DHT22;5617;54.046;10.676;2022-10-31T11:38:04;15.60;99.90
11126;DHT22;5617;54.046;10.676;2022-10-31T11:40:17;15.60;99.90
11126;DHT22;5617;54.046;10.676;2022-10-31T11:42:27;15.60;99.90
11126;DHT22;5617;54.046;10.676;2022-10-31T11:44:35;15.60;99.90
11126;DHT22;5617;54.046;10.676;2022-10-31T11:46:46;15.50;99.90
11126;DHT22;5617;54.046;10.676;2022-10-31T11:48:55;15.50;99.90
11126;DHT22;5617;54.046;10.676;2022-10-31T11:51:05;15.40;99.90
11126;DHT22;5617;54.046;10.676;2022-10-31T11:53:15;15.40;99.90
11126;DHT22;5617;54.046;10.676;2022-10-31T11:55:32;15.40;99.90
11126;DHT22;5617;54.046;10.676;2022-10-31T11:57:43;15.40;99.90
11126;DHT22;5617;54.046;10.676;2022-10-31T11:59:53;15.50;99.90
11126;DHT22;5617;54.046;10.676;2022-10-31T12:02:01;15.50;99.90
11126;DHT22;5617;54.046;10.676;2022-10-31T12:04:10;15.40;99.90
11126;DHT22;5617;54.046;10.676;2022-10-31T12:06:22;15.50;99.90
11126;DHT22;5617;54.046;10.676;2022-10-31T12:08:34;15.50;99.90
11126;DHT22;5617;54.046;10.676;2022-10-31T12:10:48;15.50;99.90
11126;DHT22;5617;54.046;10.676;2022-10-31T12:13:08;15.40;99.90
11126;DHT22;5617;54.046;10.676;2022-10-31T12:15:28;15.40;99.90
11126;DHT22;5617;54.046;10.676;2022-10-31T12:17:41;15.40;99.90
11126;DHT22;5617;54.046;10.676;2022-10-31T12:19:59;15.40;99.90
11126;DHT22;5617;54.046;10.676;2022-10-31T12:22:19;15.40;99.90
11126;DHT22;5617;54.046;10.676;2022-10-31T12:24:45;15.40;99.90
11126;DHT22;5617;54.046;10.676;2022-10-31T12:27:02;15.40;99.90
11126;DHT22;5617;54.046;10.676;2022-10-31T12:29:24;15.40;99.90
11126;DHT22;5617;54.046;10.676;2022-10-31T12:31:47;15.50;99.90
11126;DHT22;5617;54.046;10.676;2022-10-31T12:34:10;15.60;99.90
11126;DHT22;5617;54.046;10.676;2022-10-31T12:36:38;15.60;99.90
11126;DHT22;5617;54.046;10.676;2022-10-31T12:39:02;15.70;99.90
11126;DHT22;5617;54.046;10.676;2022-10-31T12:41:26;15.70;99.90
11126;DHT22;5617;54.046;10.676;2022-10-31T12:43:45;15.70;99.90
11126;DHT22;5617;54.046;10.676;2022-10-31T12:45:55;15.70;99.90
11126;DHT22;5617;54.046;10.676;2022-10-31T12:48:28;15.60;99.90
11126;DHT22;5617;54.046;10.676;2022-10-31T12:50:50;15.50;99.90
11126;DHT22;5617;54.046;10.676;2022-10-31T12:53:21;15.50;99.90
11126;DHT22;5617;54.046;10.676;2022-10-31T12:55:40;15.50;99.90
11126;DHT22;5617;54.046;10.676;2022-10-31T12:57:52;15.50;99.90
11126;DHT22;5617;54.046;10.676;2022-10-31T13:00:10;15.60;99.90
11126;DHT22;5617;54.046;10.676;2022-10-31T13:02:22;15.60;99.90
11126;DHT22;5617;54.046;10.676;2022-10-31T13:04:38;15.60;99.90
11126;DHT22;5617;54.046;10.676;2022-10-31T13:06:48;15.50;99.90
11126;DHT22;5617;54.046;10.676;2022-10-31T13:08:59;15.50;99.90
11126;DHT22;5617;54.046;10.676;2022-10-31T13:11:12;15.40;99.90
11126;DHT22;5617;54.046;10.676;2022-10-31T13:13:26;15.30;99.90
11126;DHT22;5617;54.046;10.676;2022-10-31T13:15:45;15.20;99.90
11126;DHT22;5617;54.046;10.676;2022-10-31T13:17:56;15.10;99.90
11126;DHT22;5617;54.046;10.676;2022-10-31T13:20:15;15.20;99.90
11126;DHT22;5617;54.046;10.676;2022-10-31T13:22:29;15.10;99.90
11126;DHT22;5617;54.046;10.676;2022-10-31T13:24:41;15.10;99.90
11126;DHT22;5617;54.046;10.676;2022-10-31T13:26:54;15.10;99.90
11126;DHT22;5617;54.046;10.676;2022-10-31T13:29:06;15.10;99.90
11126;DHT22;5617;54.046;10.676;2022-10-31T13:31:16;15.10;99.90
11126;DHT22;5617;54.046;10.676;2022-10-31T13:33:27;15.10;99.90
11126;DHT22;5617;54.046;10.676;2022-10-31T13:35:41;15.10;99.90
11126;DHT22;5617;54.046;10.676;2022-10-31T13:37:59;15.20;99.90
11126;DHT22;5617;54.046;10.676;2022-10-31T13:40:17;15.20;99.90
11126;DHT22;5617;54.046;10.676;2022-10-31T13:42:40;15.20;99.90
11126;DHT22;5617;54.046;10.676;2022-10-31T13:44:49;15.20;99.90
11126;DHT22;5617;54.046;10.676;2022-10-31T13:46:57;15.30;99.90
11126;DHT22;5617;54.046;10.676;2022-10-31T13:49:24;15.30;99.90
11126;DHT22;5617;54.046;10.676;2022-10-31T13:51:33;15.30;99.90
11126;DHT22;5617;54.046;10.676;2022-10-31T13:53:45;15.20;99.90